createdAt,value
2018-08-06T00:00:33.743Z,79.59
2018-08-06T00:01:33.740Z,79.39
2018-08-06T00:02:33.734Z,79.68
2018-08-06T00:03:33.729Z,79.78
2018-08-06T00:04:33.726Z,79.78
2018-08-06T00:05:33.722Z,79.78
2018-08-06T00:06:33.721Z,79.78
2018-08-06T00:07:33.710Z,79.78
2018-08-06T00:08:33.458Z,79.78
2018-08-06T00:09:33.704Z,79.78
2018-08-06T00:10:33.448Z,79.59
2018-08-06T00:11:33.443Z,79.49
2018-08-06T00:12:33.692Z,79.59
2018-08-06T00:13:33.686Z,79.78
2018-08-06T00:14:33.683Z,79.88
2018-08-06T00:15:33.680Z,80.35
2018-08-06T00:16:33.674Z,80.26
2018-08-06T00:17:33.669Z,80.16
2018-08-06T00:18:33.664Z,80.55
2018-08-06T00:19:33.659Z,80.64
2018-08-06T00:20:33.661Z,80.93
2018-08-06T00:21:33.650Z,80.93
2018-08-06T00:22:33.648Z,80.64
2018-08-06T00:23:33.647Z,80.74
2018-08-06T00:24:33.389Z,81.22
2018-08-06T00:25:33.637Z,80.93
2018-08-06T00:26:33.378Z,80.93
2018-08-06T00:27:33.373Z,80.83
2018-08-06T00:28:33.622Z,80.83
2018-08-06T00:29:33.691Z,80.64
2018-08-06T00:30:33.614Z,80.74
2018-08-06T00:31:33.607Z,81.22
2018-08-06T00:32:33.351Z,81.51
2018-08-06T00:33:33.346Z,81.31
2018-08-06T00:34:33.595Z,81.02
2018-08-06T00:35:33.589Z,81.12
2018-08-06T00:36:33.585Z,81.12
2018-08-06T00:37:33.580Z,81.6
2018-08-06T00:38:33.580Z,81.79
2018-08-06T00:39:33.572Z,81.98
2018-08-06T00:40:33.565Z,81.27
2018-08-06T00:41:33.563Z,81.6
2018-08-06T00:42:33.564Z,81.75
2018-08-06T00:43:33.305Z,81.51
2018-08-06T00:44:33.551Z,81.98
2018-08-06T00:45:33.716Z,82.08
2018-08-06T00:46:33.290Z,82.27
2018-08-06T00:47:33.536Z,82.08
2018-08-06T00:48:33.532Z,82.08
2018-08-06T00:49:33.531Z,82.27
2018-08-06T00:50:33.524Z,82.08
2018-08-06T00:51:33.516Z,82.14
2018-08-06T00:52:33.262Z,82.85
2018-08-06T00:53:33.510Z,82.75
2018-08-06T00:54:33.505Z,82.46
2018-08-06T00:55:33.501Z,82.65
2018-08-06T00:56:33.499Z,82.85
2018-08-06T00:57:33.492Z,83.14
2018-08-06T00:58:33.487Z,83.04
2018-08-06T00:59:33.482Z,83.23
2018-08-06T01:00:33.477Z,83.33
2018-08-06T01:01:33.475Z,83.33
2018-08-06T01:02:33.471Z,83.33
2018-08-06T01:03:33.464Z,83.71
2018-08-06T01:04:33.464Z,83.42
2018-08-06T01:05:33.204Z,83.76
2018-08-06T01:06:33.451Z,83.61
2018-08-06T01:07:33.198Z,83.67
2018-08-06T01:08:33.190Z,83.86
2018-08-06T01:09:33.185Z,83.76
2018-08-06T01:10:33.440Z,83.71
2018-08-06T01:11:33.428Z,83.76
2018-08-06T01:12:33.429Z,83.76
2018-08-06T01:13:33.168Z,83.91
2018-08-06T01:14:33.415Z,84.34
2018-08-06T01:15:33.415Z,84.25
2018-08-06T01:16:33.406Z,84.15
2018-08-06T01:17:33.404Z,84.44
2018-08-06T01:18:33.397Z,84.63
2018-08-06T01:19:33.395Z,84.44
2018-08-06T01:20:33.137Z,84.72
2018-08-06T01:21:33.382Z,84.25
2018-08-06T01:22:33.378Z,84.72
2018-08-06T01:23:33.372Z,84.53
2018-08-06T01:24:33.369Z,84.91
2018-08-06T01:25:33.113Z,84.82
2018-08-06T01:26:33.109Z,85.21
2018-08-06T01:27:33.357Z,85.11
2018-08-06T01:28:33.352Z,85.11
2018-08-06T01:29:33.353Z,85.01
2018-08-06T01:30:33.091Z,85.01
2018-08-06T01:31:33.341Z,85.3
2018-08-06T01:32:33.338Z,85.01
2018-08-06T01:33:33.329Z,84.91
2018-08-06T01:34:33.070Z,85.49
2018-08-06T01:35:33.317Z,85.49
2018-08-06T01:36:33.062Z,85.58
2018-08-06T01:37:33.310Z,85.58
2018-08-06T01:38:33.304Z,85.58
2018-08-06T01:39:33.299Z,85.78
2018-08-06T01:40:33.299Z,85.49
2018-08-06T01:41:33.294Z,85.39
2018-08-06T01:42:33.285Z,85.68
2018-08-06T01:43:33.281Z,85.49
2018-08-06T01:44:33.275Z,85.21
2018-08-06T01:45:33.274Z,85.49
2018-08-06T01:46:33.267Z,85.39
2018-08-06T01:47:33.262Z,85.49
2018-08-06T01:48:33.007Z,85.88
2018-08-06T01:49:33.253Z,85.58
2018-08-06T01:50:33.247Z,85.68
2018-08-06T01:51:33.243Z,85.78
2018-08-06T01:52:33.238Z,85.88
2018-08-06T01:53:33.235Z,85.88
2018-08-06T01:54:32.977Z,86.25
2018-08-06T01:55:33.232Z,86.25
2018-08-06T01:56:33.221Z,86.07
2018-08-06T01:57:33.215Z,86.16
2018-08-06T01:58:33.211Z,86.07
2018-08-06T01:59:33.207Z,86.16
2018-08-06T02:00:33.200Z,86.35
2018-08-06T02:01:33.197Z,86.54
2018-08-06T02:02:33.190Z,86.74
2018-08-06T02:03:33.186Z,86.35
2018-08-06T02:04:33.181Z,87.02
2018-08-06T02:05:33.175Z,86.64
2018-08-06T02:06:33.172Z,86.83
2018-08-06T02:07:33.166Z,87.02
2018-08-06T02:08:33.161Z,87.12
2018-08-06T02:09:33.160Z,87.02
2018-08-06T02:10:33.153Z,86.83
2018-08-06T02:11:33.150Z,87.41
2018-08-06T02:12:33.147Z,87.31
2018-08-06T02:13:33.138Z,87.12
2018-08-06T02:14:33.134Z,86.98
2018-08-06T02:15:33.132Z,87.17
2018-08-06T02:16:33.122Z,87.6
2018-08-06T02:17:33.119Z,87.27
2018-08-06T02:18:33.116Z,87.65
2018-08-06T02:19:33.114Z,87.84
2018-08-06T02:20:33.104Z,88.03
2018-08-06T02:21:33.105Z,88.03
2018-08-06T02:22:33.098Z,88.23
2018-08-06T02:23:33.093Z,88.23
2018-08-06T02:24:33.091Z,88.03
2018-08-06T02:25:33.084Z,88.23
2018-08-06T02:26:33.075Z,88.61
2018-08-06T02:27:33.070Z,88.51
2018-08-06T02:28:33.069Z,88.13
2018-08-06T02:29:33.059Z,88.32
2018-08-06T02:30:33.057Z,88.51
2018-08-06T02:31:32.800Z,88.8
2018-08-06T02:32:33.047Z,88.7
2018-08-06T02:33:33.048Z,88.7
2018-08-06T02:34:33.040Z,89.09
2018-08-06T02:35:33.041Z,88.9
2018-08-06T02:36:33.040Z,89.37
2018-08-06T02:37:33.029Z,89.28
2018-08-06T02:38:33.018Z,89.18
2018-08-06T02:39:33.015Z,89.47
2018-08-06T02:40:33.008Z,89.95
2018-08-06T02:41:33.003Z,89.95
2018-08-06T02:42:32.747Z,90.23
2018-08-06T02:43:32.995Z,90.23
2018-08-06T02:44:32.991Z,90.43
2018-08-06T02:45:32.983Z,90.14
2018-08-06T02:46:32.730Z,90.14
2018-08-06T02:47:32.722Z,90.43
2018-08-06T02:48:32.987Z,90.43
2018-08-06T02:49:32.712Z,90.43
2018-08-06T02:50:32.958Z,90.14
2018-08-06T02:51:32.954Z,90.05
2018-08-06T02:52:32.950Z,90.33
2018-08-06T02:53:32.944Z,90.43
2018-08-06T02:54:32.940Z,90.14
2018-08-06T02:55:32.934Z,90.33
2018-08-06T02:56:32.928Z,90.62
2018-08-06T02:57:32.672Z,90.53
2018-08-06T02:58:32.918Z,90.67
2018-08-06T02:59:32.914Z,91.29
2018-08-06T03:00:32.911Z,91.72
2018-08-06T03:01:32.904Z,92.25
2018-08-06T03:02:32.899Z,91.77
2018-08-06T03:03:32.898Z,91.63
2018-08-06T03:04:32.889Z,92.44
2018-08-06T03:05:32.885Z,91.96
2018-08-06T03:06:32.880Z,92.3
2018-08-06T03:07:32.876Z,92.4
2018-08-06T03:08:32.618Z,92.49
2018-08-06T03:09:32.863Z,92.4
2018-08-06T03:10:32.858Z,92.3
2018-08-06T03:11:32.854Z,92.58
2018-08-06T03:12:32.848Z,92.4
2018-08-06T03:13:32.843Z,92.49
2018-08-06T03:14:32.837Z,92.11
2018-08-06T03:15:32.837Z,92.21
2018-08-06T03:16:32.834Z,92.21
2018-08-06T03:17:32.822Z,92.4
2018-08-06T03:18:32.566Z,91.82
2018-08-06T03:19:32.812Z,91.53
2018-08-06T03:20:32.805Z,91.63
2018-08-06T03:21:32.828Z,91.63
2018-08-06T03:22:32.545Z,91.82
2018-08-06T03:23:32.803Z,91.53
2018-08-06T03:24:32.787Z,92.21
2018-08-06T03:25:32.781Z,92.01
2018-08-06T03:26:32.783Z,92.01
2018-08-06T03:27:32.771Z,92.21
2018-08-06T03:28:32.514Z,92.11
2018-08-06T03:29:32.798Z,92.21
2018-08-06T03:30:32.505Z,92.11
2018-08-06T03:31:32.765Z,92.11
2018-08-06T03:32:32.752Z,92.4
2018-08-06T03:33:32.747Z,92.49
2018-08-06T03:34:32.483Z,92.49
2018-08-06T03:35:32.733Z,92.4
2018-08-06T03:36:32.727Z,92.01
2018-08-06T03:37:32.719Z,92.11
2018-08-06T03:38:32.718Z,92.49
2018-08-06T03:39:32.456Z,92.3
2018-08-06T03:40:32.707Z,92.49
2018-08-06T03:41:32.699Z,92.11
2018-08-06T03:42:32.696Z,92.58
2018-08-06T03:43:32.436Z,92.97
2018-08-06T03:44:32.683Z,92.87
2018-08-06T03:45:32.677Z,92.97
2018-08-06T03:46:32.671Z,92.97
2018-08-06T03:47:32.673Z,93.07
2018-08-06T03:48:32.661Z,93.07
2018-08-06T03:49:32.664Z,92.97
2018-08-06T03:50:32.651Z,92.97
2018-08-06T03:51:32.650Z,93.07
2018-08-06T03:52:32.641Z,93.07
2018-08-06T03:53:32.635Z,93.16
2018-08-06T03:54:32.380Z,92.97
2018-08-06T03:55:32.628Z,92.87
2018-08-06T03:56:32.625Z,93.07
2018-08-06T03:57:32.615Z,92.97
2018-08-06T03:58:32.609Z,93.07
2018-08-06T03:59:32.606Z,93.07
2018-08-06T04:00:32.600Z,92.97
2018-08-06T04:01:32.593Z,92.87
2018-08-06T04:02:32.590Z,93.07
2018-08-06T04:03:32.584Z,92.44
2018-08-06T04:04:32.578Z,92.44
2018-08-06T04:05:32.573Z,92.35
2018-08-06T04:06:32.570Z,92.44
2018-08-06T04:07:32.313Z,92.44
2018-08-06T04:08:32.562Z,92.63
2018-08-06T04:09:32.554Z,92.92
2018-08-06T04:10:32.551Z,92.44
2018-08-06T04:11:32.549Z,93.21
2018-08-06T04:12:32.539Z,92.68
2018-08-06T04:13:32.691Z,92.3
2018-08-06T04:14:32.529Z,91.82
2018-08-06T04:15:32.273Z,91.67
2018-08-06T04:16:32.522Z,90.71
2018-08-06T04:17:32.517Z,90.18
2018-08-06T04:18:32.260Z,89.51
2018-08-06T04:19:32.510Z,88.4
2018-08-06T04:20:32.504Z,87.77
2018-08-06T04:21:32.248Z,86.33
2018-08-06T04:22:32.496Z,85.61
2018-08-06T04:23:32.520Z,84.88
2018-08-06T04:24:32.489Z,83.83
2018-08-06T04:25:32.488Z,82.71
2018-08-06T04:26:32.485Z,81.88
2018-08-06T04:27:32.479Z,80.44
2018-08-06T04:28:32.477Z,79.9
2018-08-06T04:29:32.477Z,78.4
2018-08-06T04:30:32.476Z,77.28
2018-08-06T04:31:32.471Z,76.42
2018-08-06T04:32:32.217Z,75.4
2018-08-06T04:33:32.215Z,73.99
2018-08-06T04:34:32.465Z,72.77
2018-08-06T04:35:32.465Z,71.32
2018-08-06T04:36:32.465Z,70
2018-08-06T04:37:32.462Z,68.88
2018-08-06T04:38:32.650Z,67.75
2018-08-06T04:39:32.462Z,67.01
2018-08-06T04:40:32.215Z,65.56
2018-08-06T04:41:32.467Z,64.43
2018-08-06T04:42:32.213Z,63.69
2018-08-06T04:43:32.212Z,62.95
2018-08-06T04:44:32.464Z,61.79
2018-08-06T04:45:32.214Z,60.65
2018-08-06T04:46:32.472Z,59.33
2018-08-06T04:47:32.473Z,57.9
2018-08-06T04:48:32.474Z,57.51
2018-08-06T04:49:32.480Z,56.18
2018-08-06T04:50:32.476Z,55.63
2018-08-06T04:51:32.480Z,54.66
2018-08-06T04:52:32.490Z,53.71
2018-08-06T04:53:32.236Z,53.25
2018-08-06T04:54:32.492Z,52.57
2018-08-06T04:55:32.243Z,51.62
2018-08-06T04:56:32.500Z,50.97
2018-08-06T04:57:32.504Z,50.29
2018-08-06T04:58:32.513Z,50.02
2018-08-06T04:59:32.533Z,48.78
2018-08-06T05:00:32.518Z,48.19
2018-08-06T05:01:32.523Z,47.44
2018-08-06T05:02:32.284Z,47.17
2018-08-06T05:03:32.537Z,46.51
2018-08-06T05:04:32.543Z,45.92
2018-08-06T05:05:32.547Z,45.46
2018-08-06T05:06:32.553Z,44.97
2018-08-06T05:07:32.557Z,44.21
2018-08-06T05:08:32.568Z,43.85
2018-08-06T05:09:32.576Z,42.77
2018-08-06T05:10:32.582Z,42.6
2018-08-06T05:11:32.590Z,42.01
2018-08-06T05:12:32.612Z,41.64
2018-08-06T05:13:32.660Z,41.36
2018-08-06T05:14:32.609Z,40.78
2018-08-06T05:15:32.365Z,41
2018-08-06T05:16:32.624Z,40.5
2018-08-06T05:17:32.635Z,39.45
2018-08-06T05:18:32.642Z,39.17
2018-08-06T05:19:32.841Z,38.78
2018-08-06T05:20:32.657Z,38.51
2018-08-06T05:21:32.667Z,38.12
2018-08-06T05:22:32.675Z,38.04
2018-08-06T05:23:32.684Z,37.74
2018-08-06T05:24:32.697Z,37.25
2018-08-06T05:25:32.701Z,36.78
2018-08-06T05:26:32.727Z,37.37
2018-08-06T05:27:32.719Z,37.37
2018-08-06T05:28:32.729Z,36.49
2018-08-06T05:29:32.739Z,36.51
2018-08-06T05:30:32.748Z,36.01
2018-08-06T05:31:32.759Z,36.3
2018-08-06T05:32:32.765Z,36.6
2018-08-06T05:33:32.777Z,35.82
2018-08-06T05:34:32.786Z,35.34
2018-08-06T05:35:32.801Z,35.24
2018-08-06T05:36:32.848Z,35.24
2018-08-06T05:37:32.816Z,34.87
2018-08-06T05:38:32.576Z,34.67
2018-08-06T05:39:32.837Z,33.61
2018-08-06T05:40:32.850Z,33.72
2018-08-06T05:41:32.858Z,33.72
2018-08-06T05:42:32.871Z,33.82
2018-08-06T05:43:32.878Z,33.33
2018-08-06T05:44:32.888Z,33.23
2018-08-06T05:45:32.902Z,33.03
2018-08-06T05:46:32.911Z,32.95
2018-08-06T05:47:32.921Z,32.93
2018-08-06T05:48:32.930Z,32.56
2018-08-06T05:49:32.945Z,33.15
2018-08-06T05:50:32.956Z,33.15
2018-08-06T05:51:32.964Z,33.05
2018-08-06T05:52:32.978Z,32.86
2018-08-06T05:53:32.987Z,32.65
2018-08-06T05:54:32.995Z,33.15
2018-08-06T05:56:33.020Z,32.57
2018-08-06T05:57:33.032Z,32.48
2018-08-06T05:58:33.051Z,32.48
2018-08-06T05:59:33.055Z,32.08
2018-08-06T06:00:32.814Z,32.57
2018-08-06T06:01:33.077Z,31.9
2018-08-06T06:02:35.829Z,31.9
2018-08-06T06:03:42.587Z,31.8
2018-08-06T06:04:33.112Z,31.8
2018-08-06T06:05:33.123Z,32.59
2018-08-06T06:06:33.135Z,31.41
2018-08-06T06:07:34.422Z,32
2018-08-06T06:08:33.157Z,31.8
2018-08-06T06:09:33.170Z,32.1
2018-08-06T06:10:33.181Z,31.7
2018-08-06T06:11:33.194Z,31.92
2018-08-06T06:13:33.217Z,31.44
2018-08-06T06:14:34.506Z,31.34
2018-08-06T06:15:33.243Z,31.14
2018-08-06T06:16:33.254Z,30.96
2018-08-06T06:17:33.268Z,31.17
2018-08-06T06:18:33.285Z,30.98
2018-08-06T06:19:33.291Z,30.69
2018-08-06T06:20:33.306Z,30.3
2018-08-06T06:21:33.319Z,30.32
2018-08-06T06:22:33.331Z,29.72
2018-08-06T06:23:33.346Z,29.52
2018-08-06T06:24:33.361Z,29.83
2018-08-06T06:25:33.124Z,29.74
2018-08-06T06:26:33.386Z,29.55
2018-08-06T06:27:33.147Z,29.16
2018-08-06T06:28:33.547Z,28.78
2018-08-06T06:29:33.504Z,28.67
2018-08-06T06:30:33.441Z,28.88
2018-08-06T06:31:33.456Z,29.07
2018-08-06T06:32:33.470Z,27.98
2018-08-06T06:33:33.486Z,28.38
2018-08-06T06:34:33.334Z,28.28
2018-08-06T06:35:33.513Z,28.28
2018-08-06T06:36:33.537Z,28.17
2018-08-06T06:37:33.551Z,28.96
2018-08-06T06:38:33.561Z,29.06
2018-08-06T06:39:33.321Z,29.36
2018-08-06T06:40:33.587Z,29.17
2018-08-06T06:41:33.608Z,28.38
2018-08-06T06:42:33.621Z,28.09
2018-08-06T06:43:33.641Z,28.09
2018-08-06T06:44:33.650Z,28.2
2018-08-06T06:45:33.666Z,28.01
2018-08-06T06:46:33.685Z,27.12
2018-08-06T06:47:33.696Z,27.14
2018-08-06T06:48:33.711Z,27.53
2018-08-06T06:49:33.742Z,27.14
2018-08-06T06:50:33.749Z,26.84
2018-08-06T06:51:33.760Z,26.26
2018-08-06T06:52:33.774Z,26.55
2018-08-06T06:53:33.539Z,27.03
2018-08-06T06:54:34.069Z,26.84
2018-08-06T06:55:33.825Z,26.93
2018-08-06T06:56:33.840Z,26.55
2018-08-06T06:57:33.860Z,26.55
2018-08-06T06:58:33.877Z,26.45
2018-08-06T06:59:33.639Z,25.77
2018-08-06T07:00:33.907Z,26.27
2018-08-06T07:01:33.924Z,26.08
2018-08-06T07:02:33.690Z,26.08
2018-08-06T07:03:33.957Z,26.08
2018-08-06T07:04:33.974Z,25.68
2018-08-06T07:05:33.990Z,25.68
2018-08-06T07:06:33.758Z,25.59
2018-08-06T07:07:33.772Z,25.89
2018-08-06T07:08:33.794Z,25.39
2018-08-06T07:09:34.059Z,25.3
2018-08-06T07:10:34.076Z,24.9
2018-08-06T07:11:34.094Z,24.51
2018-08-06T07:12:33.859Z,24.41
2018-08-06T07:13:34.178Z,24.51
2018-08-06T07:14:34.144Z,24.8
2018-08-06T07:15:34.161Z,24.51
2018-08-06T07:16:34.180Z,24.71
2018-08-06T07:17:34.195Z,24.11
2018-08-06T07:18:34.215Z,24.12
2018-08-06T07:19:33.980Z,24.12
2018-08-06T07:20:34.249Z,23.72
2018-08-06T07:21:34.269Z,23.81
2018-08-06T07:22:34.282Z,24.12
2018-08-06T07:23:34.298Z,24.42
2018-08-06T07:24:34.317Z,23.64
2018-08-06T07:25:34.339Z,23.74
2018-08-06T07:26:34.352Z,23.85
2018-08-06T07:27:34.372Z,24.05
2018-08-06T07:28:34.390Z,23.66
2018-08-06T07:29:34.405Z,23.46
2018-08-06T07:30:34.431Z,23.37
2018-08-06T07:31:34.440Z,23.18
2018-08-06T07:32:34.459Z,22.49
2018-08-06T07:33:34.560Z,22.29
2018-08-06T07:34:34.497Z,22
2018-08-06T07:35:34.514Z,21.41
2018-08-06T07:36:34.533Z,21.8
2018-08-06T07:37:34.547Z,21.7
2018-08-06T07:38:34.567Z,21.6
2018-08-06T07:39:34.588Z,21.41
2018-08-06T07:40:34.352Z,21.79
2018-08-06T07:41:34.619Z,21.89
2018-08-06T07:42:34.640Z,21.49
2018-08-06T07:43:34.656Z,21.19
2018-08-06T07:44:34.679Z,21.19
2018-08-06T07:45:34.692Z,21.78
2018-08-06T07:46:34.712Z,21.67
2018-08-06T07:47:34.477Z,21.67
2018-08-06T07:48:34.495Z,21.57
2018-08-06T07:49:34.568Z,21.67
2018-08-06T07:50:34.783Z,21.46
2018-08-06T07:51:34.803Z,21.46
2018-08-06T07:52:34.819Z,22.06
2018-08-06T07:53:34.836Z,22.45
2018-08-06T07:54:34.854Z,22.66
2018-08-06T07:55:34.621Z,22.34
2018-08-06T07:56:34.893Z,22.24
2018-08-06T07:57:34.909Z,22.55
2018-08-06T07:58:34.927Z,22.63
2018-08-06T07:59:36.646Z,22.24
2018-08-06T08:01:34.982Z,22.53
2018-08-06T08:02:36.679Z,23.13
2018-08-06T08:03:35.016Z,22.63
2018-08-06T08:04:35.035Z,21.74
2018-08-06T08:05:35.053Z,22.62
2018-08-06T08:06:35.223Z,23.01
2018-08-06T08:07:35.085Z,23.3
2018-08-06T08:08:35.106Z,23.21
2018-08-06T08:09:35.124Z,22.81
2018-08-06T08:10:35.137Z,23.01
2018-08-06T08:11:35.154Z,22.71
2018-08-06T08:12:35.173Z,23.21
2018-08-06T08:13:35.190Z,22.91
2018-08-06T08:14:35.207Z,23.18
2018-08-06T08:15:34.972Z,23.66
2018-08-06T08:16:35.243Z,24.32
2018-08-06T08:17:35.259Z,25.08
2018-08-06T08:18:35.021Z,25.56
2018-08-06T08:19:35.509Z,25.84
2018-08-06T08:20:35.304Z,26.82
2018-08-06T08:21:35.323Z,27.22
2018-08-06T08:22:35.085Z,27.31
2018-08-06T08:23:35.361Z,27.01
2018-08-06T08:24:35.116Z,26.82
2018-08-06T08:25:35.384Z,26.92
2018-08-06T08:26:35.405Z,27.31
2018-08-06T08:27:35.162Z,27.2
2018-08-06T08:28:35.177Z,27.5
2018-08-06T08:29:35.453Z,28.19
2018-08-06T08:30:35.209Z,27.2
2018-08-06T08:31:35.475Z,26.99
2018-08-06T08:32:35.490Z,26.88
2018-08-06T08:33:35.504Z,28.34
2018-08-06T08:34:35.520Z,28.81
2018-08-06T08:35:35.283Z,29.76
2018-08-06T08:36:35.549Z,30.24
2018-08-06T08:37:35.565Z,30.71
2018-08-06T08:38:35.578Z,31.09
2018-08-06T08:39:35.620Z,31.57
2018-08-06T08:40:35.355Z,31.77
2018-08-06T08:41:35.626Z,31.77
2018-08-06T08:42:35.635Z,31.68
2018-08-06T08:43:35.651Z,31.47
2018-08-06T08:44:35.664Z,33.14
2018-08-06T08:45:35.808Z,33.31
2018-08-06T08:46:35.691Z,33.29
2018-08-06T08:47:35.705Z,33.79
2018-08-06T08:48:35.719Z,34.18
2018-08-06T08:49:35.479Z,34.84
2018-08-06T08:50:35.748Z,34.75
2018-08-06T08:51:35.757Z,35.13
2018-08-06T08:52:35.862Z,36.77
2018-08-06T08:53:35.783Z,36.26
2018-08-06T08:54:35.808Z,37.4
2018-08-06T08:55:35.553Z,37.7
2018-08-06T08:56:35.817Z,38.16
2018-08-06T08:57:35.572Z,38.73
2018-08-06T08:58:35.995Z,39.12
2018-08-06T08:59:35.846Z,39.1
2018-08-06T09:00:35.853Z,39.18
2018-08-06T09:01:35.862Z,40.25
2018-08-06T09:02:35.873Z,41.01
2018-08-06T09:03:35.881Z,41.38
2018-08-06T09:04:35.887Z,41.28
2018-08-06T09:05:35.895Z,41.46
2018-08-06T09:06:35.903Z,41.94
2018-08-06T09:07:35.910Z,42.33
2018-08-06T09:08:35.917Z,42.5
2018-08-06T09:09:35.927Z,43.36
2018-08-06T09:10:35.931Z,44.04
2018-08-06T09:11:35.936Z,44.79
2018-08-06T09:12:35.946Z,45.28
2018-08-06T09:13:35.697Z,45.92
2018-08-06T09:14:35.955Z,47.18
2018-08-06T09:15:35.958Z,46.41
2018-08-06T09:16:36.032Z,47.16
2018-08-06T09:17:35.972Z,47.06
2018-08-06T09:18:35.973Z,46.38
2018-08-06T09:19:35.978Z,46.96
2018-08-06T09:20:35.985Z,47.72
2018-08-06T09:21:35.988Z,48
2018-08-06T09:22:35.987Z,48.18
2018-08-06T09:23:35.991Z,48.57
2018-08-06T09:24:35.747Z,49.44
2018-08-06T09:25:36.006Z,49.54
2018-08-06T09:26:36.018Z,49.8
2018-08-06T09:27:36.005Z,49.82
2018-08-06T09:28:36.009Z,49.63
2018-08-06T09:29:36.014Z,49.82
2018-08-06T09:30:36.020Z,49.82
2018-08-06T09:31:35.764Z,49.82
2018-08-06T09:32:36.018Z,50.21
2018-08-06T09:33:36.021Z,49.82
2018-08-06T09:34:36.027Z,49.44
2018-08-06T09:35:36.027Z,49.15
2018-08-06T09:36:36.027Z,49.63
2018-08-06T09:37:36.039Z,50.12
2018-08-06T09:38:36.036Z,50.12
2018-08-06T09:39:36.036Z,50.5
2018-08-06T09:40:36.200Z,50.12
2018-08-06T09:41:36.040Z,50.12
2018-08-06T09:42:35.791Z,49.46
2018-08-06T09:43:36.050Z,49.46
2018-08-06T09:44:35.795Z,49.44
2018-08-06T09:45:36.048Z,49.82
2018-08-06T09:46:36.055Z,49.34
2018-08-06T09:47:36.053Z,49.54
2018-08-06T09:48:36.070Z,49.44
2018-08-06T09:49:35.806Z,49.34
2018-08-06T09:50:36.059Z,49.54
2018-08-06T09:51:35.809Z,49.34
2018-08-06T09:52:36.062Z,49.34
2018-08-06T09:53:36.065Z,49.24
2018-08-06T09:54:35.815Z,50.02
2018-08-06T09:55:36.068Z,49.73
2018-08-06T09:56:36.070Z,50.02
2018-08-06T09:57:35.821Z,50.12
2018-08-06T09:58:36.079Z,49.61
2018-08-06T09:59:36.077Z,49.63
2018-08-06T10:00:36.078Z,50.41
2018-08-06T10:01:36.080Z,50.38
2018-08-06T10:02:36.089Z,51.37
2018-08-06T10:03:36.083Z,50.79
2018-08-06T10:04:36.085Z,49.92
2018-08-06T10:05:35.881Z,50.02
2018-08-06T10:06:36.466Z,50.21
2018-08-06T10:07:36.090Z,49.44
2018-08-06T10:08:36.096Z,49.54
2018-08-06T10:09:35.843Z,48.85
2018-08-06T10:10:36.096Z,49.44
2018-08-06T10:11:35.846Z,50.79
2018-08-06T10:12:36.101Z,50.41
2018-08-06T10:13:36.105Z,49.63
2018-08-06T10:14:36.118Z,49.73
2018-08-06T10:15:36.114Z,49.44
2018-08-06T10:16:36.107Z,49.63
2018-08-06T10:17:36.119Z,49.82
2018-08-06T10:18:36.111Z,49.92
2018-08-06T10:19:36.337Z,49.63
2018-08-06T10:20:36.115Z,48
2018-08-06T10:21:36.115Z,47.72
2018-08-06T10:22:36.118Z,47.72
2018-08-06T10:23:36.120Z,48
2018-08-06T10:24:36.384Z,48.1
2018-08-06T10:25:36.123Z,48.2
2018-08-06T10:26:36.124Z,48.1
2018-08-06T10:27:36.128Z,47.81
2018-08-06T10:28:36.135Z,48
2018-08-06T10:29:36.139Z,48
2018-08-06T10:30:35.901Z,47.91
2018-08-06T10:31:36.138Z,47.03
2018-08-06T10:32:36.138Z,47.52
2018-08-06T10:33:36.138Z,47.72
2018-08-06T10:34:36.141Z,47.52
2018-08-06T10:35:36.147Z,47.72
2018-08-06T10:36:36.142Z,47.72
2018-08-06T10:37:36.145Z,48.1
2018-08-06T10:38:36.151Z,48.2
2018-08-06T10:39:35.897Z,49.56
2018-08-06T10:40:36.255Z,49.46
2018-08-06T10:41:36.154Z,48.3
2018-08-06T10:42:36.158Z,47.91
2018-08-06T10:43:36.157Z,47.74
2018-08-06T10:44:36.159Z,47.74
2018-08-06T10:45:36.162Z,45.61
2018-08-06T10:46:35.911Z,45.8
2018-08-06T10:47:48.901Z,46.28
2018-08-06T10:48:36.229Z,45.51
2018-08-06T10:49:36.171Z,45.7
2018-08-06T10:50:36.170Z,45.99
2018-08-06T10:51:36.175Z,45.41
2018-08-06T10:52:36.176Z,45.12
2018-08-06T10:53:36.427Z,45.41
2018-08-06T10:54:36.179Z,45.31
2018-08-06T10:55:36.181Z,45.41
2018-08-06T10:56:35.932Z,45.51
2018-08-06T10:57:35.951Z,45.51
2018-08-06T10:58:36.187Z,45.82
2018-08-06T10:59:35.941Z,46.28
2018-08-06T11:00:36.191Z,46.28
2018-08-06T11:01:36.193Z,46.58
2018-08-06T11:02:36.194Z,46.6
2018-08-06T11:03:36.204Z,47.18
2018-08-06T11:04:36.199Z,46.69
2018-08-06T11:05:35.969Z,46.98
2018-08-06T11:06:36.389Z,47.66
2018-08-06T11:07:36.208Z,47.76
2018-08-06T11:08:36.209Z,46.98
2018-08-06T11:09:36.211Z,46.6
2018-08-06T11:10:36.214Z,46.98
2018-08-06T11:11:36.217Z,47.18
2018-08-06T11:12:36.220Z,46.6
2018-08-06T11:13:36.218Z,46.79
2018-08-06T11:14:36.224Z,46.5
2018-08-06T11:15:36.229Z,46.79
2018-08-06T11:16:36.231Z,46.98
2018-08-06T11:17:36.227Z,46.89
2018-08-06T11:18:36.230Z,46.5
2018-08-06T11:19:35.981Z,46.31
2018-08-06T11:20:36.487Z,47.11
2018-08-06T11:21:35.986Z,46.62
2018-08-06T11:22:35.988Z,45.84
2018-08-06T11:23:36.243Z,46.14
2018-08-06T11:24:36.493Z,46.81
2018-08-06T11:25:36.250Z,46.23
2018-08-06T11:26:36.252Z,45.45
2018-08-06T11:27:36.251Z,45.07
2018-08-06T11:28:36.432Z,45.07
2018-08-06T11:29:36.256Z,45.26
2018-08-06T11:30:36.259Z,45.65
2018-08-06T11:31:36.263Z,45.28
2018-08-06T11:32:36.270Z,45.36
2018-08-06T11:33:36.266Z,44.78
2018-08-06T11:34:36.017Z,44.89
2018-08-06T11:35:36.269Z,43.82
2018-08-06T11:36:36.035Z,42.27
2018-08-06T11:37:36.274Z,42.85
2018-08-06T11:38:36.283Z,42.27
2018-08-06T11:39:36.285Z,41.01
2018-08-06T11:40:36.285Z,40.72
2018-08-06T11:41:36.285Z,41.28
2018-08-06T11:42:36.286Z,41.18
2018-08-06T11:43:36.318Z,41.28
2018-08-06T11:44:36.292Z,41.28
2018-08-06T11:45:36.297Z,41.47
2018-08-06T11:46:36.304Z,42.13
2018-08-06T11:47:36.308Z,41.06
2018-08-06T11:48:36.302Z,41.18
2018-08-06T11:49:36.311Z,41.28
2018-08-06T11:50:36.308Z,41.36
2018-08-06T11:51:36.309Z,41.26
2018-08-06T11:52:36.315Z,41.16
2018-08-06T11:53:36.313Z,40.97
2018-08-06T11:54:36.318Z,41.06
2018-08-06T11:55:36.325Z,40.58
2018-08-06T11:56:36.542Z,40.6
2018-08-06T11:57:36.073Z,41.36
2018-08-06T11:58:36.076Z,41.45
2018-08-06T11:59:36.347Z,41.74
2018-08-06T12:00:36.079Z,41.36
2018-08-06T12:01:36.083Z,41.67
2018-08-06T12:02:36.340Z,41.36
2018-08-06T12:03:36.347Z,41.47
2018-08-06T12:04:36.355Z,42.05
2018-08-06T12:05:36.346Z,42.44
2018-08-06T12:06:36.349Z,41.57
2018-08-06T12:07:36.346Z,41.18
2018-08-06T12:08:36.459Z,41.47
2018-08-06T12:09:36.359Z,41.28
2018-08-06T12:10:36.353Z,41.38
2018-08-06T12:11:36.359Z,41.18
2018-08-06T12:12:36.358Z,41.38
2018-08-06T12:13:36.459Z,41.57
2018-08-06T12:14:36.365Z,41.47
2018-08-06T12:15:36.366Z,41.57
2018-08-06T12:16:36.375Z,41.96
2018-08-06T12:17:36.383Z,42.25
2018-08-06T12:18:36.374Z,42.15
2018-08-06T12:19:36.376Z,41.28
2018-08-06T12:20:36.380Z,41.2
2018-08-06T12:21:36.380Z,40.23
2018-08-06T12:22:36.384Z,39.45
2018-08-06T12:23:36.440Z,38.77
2018-08-06T12:24:36.389Z,38.67
2018-08-06T12:25:36.390Z,38.46
2018-08-06T12:26:36.146Z,40.01
2018-08-06T12:27:36.410Z,41.28
2018-08-06T12:28:36.396Z,41.38
2018-08-06T12:29:36.404Z,41.08
2018-08-06T12:30:36.403Z,41.3
2018-08-06T12:31:36.569Z,38.87
2018-08-06T12:32:36.407Z,38.57
2018-08-06T12:33:36.466Z,39.55
2018-08-06T12:34:36.414Z,38.96
2018-08-06T12:35:36.421Z,40.23
2018-08-06T12:36:36.416Z,39.06
2018-08-06T12:37:36.419Z,39.55
2018-08-06T12:38:36.423Z,39.06
2018-08-06T12:39:36.427Z,38.77
2018-08-06T12:40:36.426Z,38.39
2018-08-06T12:41:36.429Z,38.29
2018-08-06T12:42:36.433Z,37.99
2018-08-06T12:43:36.440Z,38.67
2018-08-06T12:44:36.436Z,38.96
2018-08-06T12:45:36.188Z,38.48
2018-08-06T12:46:36.443Z,38.77
2018-08-06T12:47:36.445Z,38.96
2018-08-06T12:48:36.450Z,38.48
2018-08-06T12:49:36.449Z,38.77
2018-08-06T12:50:36.457Z,38.87
2018-08-06T12:51:36.532Z,38.67
2018-08-06T12:52:36.456Z,38.77
2018-08-06T12:53:36.460Z,38.96
2018-08-06T12:54:36.461Z,39.55
2018-08-06T12:55:36.464Z,39.75
2018-08-06T12:56:36.467Z,39.55
2018-08-06T12:57:36.483Z,39.26
2018-08-06T12:58:36.477Z,39.45